createdAt,value
2022-11-27T00:01:32.284Z,18.48
2022-11-27T00:03:59.926Z,19.02
2022-11-27T00:06:29.684Z,18.73
2022-11-27T00:08:58.870Z,18.42
2022-11-27T00:11:28.331Z,18.38
2022-11-27T00:13:56.211Z,19.65
2022-11-27T00:16:25.109Z,19.08
2022-11-27T00:18:53.167Z,18.83
2022-11-27T00:21:25.035Z,19.98
2022-11-27T00:23:53.974Z,19.50
2022-11-27T00:26:22.373Z,20.02
2022-11-27T00:28:50.374Z,19.83
2022-11-27T00:31:21.178Z,18.98
2022-11-27T00:33:49.035Z,20.10
2022-11-27T00:36:16.837Z,20.05
2022-11-27T00:38:44.258Z,17.75
2022-11-27T00:41:23.863Z,18.25
2022-11-27T00:43:52.377Z,20.65
2022-11-27T00:46:28.388Z,20.02
2022-11-27T00:48:57.891Z,17.85
2022-11-27T00:51:25.773Z,18.67
2022-11-27T00:53:53.910Z,18.33
2022-11-27T00:56:24.444Z,18.90
2022-11-27T00:58:52.653Z,18.95
2022-11-27T01:01:25.790Z,17.95
2022-11-27T01:03:53.475Z,17.15
2022-11-27T01:06:21.387Z,17.50
2022-11-27T01:08:49.501Z,16.23
2022-11-27T01:11:26.297Z,18.00
2022-11-27T01:13:55.817Z,17.88
2022-11-27T01:16:25.647Z,17.40
2022-11-27T01:18:57.867Z,15.52
2022-11-27T01:21:26.853Z,16.40
2022-11-27T01:23:54.814Z,16.92
2022-11-27T01:26:22.522Z,16.13
2022-11-27T01:28:53.545Z,18.55
2022-11-27T01:33:54.693Z,13.25
2022-11-27T01:36:23.041Z,14.65
2022-11-27T01:38:50.860Z,14.48
2022-11-27T01:41:27.856Z,14.05
2022-11-27T01:43:59.985Z,16.80
2022-11-27T01:46:44.064Z,18.17
2022-11-27T01:49:11.523Z,15.32
2022-11-27T01:51:51.259Z,16.25
2022-11-27T01:54:20.514Z,17.40
2022-11-27T01:56:52.358Z,18.33
2022-11-27T01:59:19.982Z,18.25
2022-11-27T02:01:47.511Z,20.98
2022-11-27T02:04:15.111Z,20.33
2022-11-27T02:06:42.608Z,16.08
2022-11-27T02:09:10.055Z,15.63
2022-11-27T02:11:46.362Z,15.65
2022-11-27T02:14:34.338Z,12.98
2022-11-27T02:17:40.011Z,11.88
2022-11-27T02:20:44.517Z,12.43
2022-11-27T02:23:46.749Z,12.25
2022-11-27T02:26:36.367Z,12.15
2022-11-27T02:29:07.376Z,11.82
2022-11-27T02:34:35.689Z,12.50
2022-11-27T02:37:14.749Z,12.55
2022-11-27T02:39:55.679Z,11.75
2022-11-27T02:42:24.487Z,11.10
2022-11-27T02:45:04.838Z,12.18
2022-11-27T02:47:32.741Z,12.25
2022-11-27T02:50:01.991Z,12.40
2022-11-27T02:52:31.415Z,13.32
2022-11-27T02:55:03.477Z,13.55
2022-11-27T02:57:33.037Z,13.38
2022-11-27T03:00:01.418Z,14.93
2022-11-27T03:02:36.606Z,14.35
2022-11-27T03:05:06.789Z,14.65
2022-11-27T03:07:42.527Z,14.43
2022-11-27T03:10:19.345Z,13.63
2022-11-27T03:12:48.644Z,13.48
2022-11-27T03:15:16.606Z,16.67
2022-11-27T03:18:18.874Z,15.23
2022-11-27T03:20:55.561Z,15.05
2022-11-27T03:23:23.004Z,13.35
2022-11-27T03:25:50.486Z,15.27
2022-11-27T03:28:17.903Z,14.85
2022-11-27T03:30:45.254Z,14.85
2022-11-27T03:33:12.632Z,14.48
2022-11-27T03:35:40.026Z,16.42
2022-11-27T03:38:07.403Z,14.55
2022-11-27T03:41:04.072Z,13.38
2022-11-27T03:43:37.486Z,11.73
2022-11-27T03:46:11.246Z,11.63
2022-11-27T03:48:59.994Z,11.63
2022-11-27T03:51:41.392Z,10.80
2022-11-27T03:54:52.014Z,10.23
2022-11-27T03:57:26.712Z,10.20
2022-11-27T03:59:57.133Z,10.63
2022-11-27T04:02:42.031Z,9.85
2022-11-27T04:05:09.944Z,9.88
2022-11-27T04:07:37.536Z,10.98
2022-11-27T04:10:05.745Z,10.45
2022-11-27T04:12:33.313Z,11.43
2022-11-27T04:15:00.918Z,12.07
2022-11-27T04:17:28.446Z,10.88
2022-11-27T04:19:55.852Z,10.25
2022-11-27T04:22:23.346Z,11.18
2022-11-27T04:24:51.300Z,11.27
2022-11-27T04:27:19.067Z,12.13
2022-11-27T04:29:46.381Z,12.48
2022-11-27T04:32:13.761Z,11.75
2022-11-27T04:34:41.272Z,11.77
2022-11-27T04:37:08.933Z,12.35
2022-11-27T05:04:23.846Z,13.35
2022-11-27T05:06:51.368Z,11.40
2022-11-27T05:09:19.052Z,12.20
2022-11-27T05:11:46.606Z,12.73
2022-11-27T05:14:18.085Z,12.15
2022-11-27T05:16:51.481Z,12.85
2022-11-27T05:19:21.058Z,11.52
2022-11-27T05:21:49.278Z,11.73
2022-11-27T05:24:17.691Z,13.10
2022-11-27T05:26:45.478Z,11.60
2022-11-27T05:29:14.472Z,13.02
2022-11-27T05:31:42.406Z,14.68
2022-11-27T05:34:10.370Z,14.27
2022-11-27T05:36:38.491Z,13.32
2022-11-27T05:39:07.533Z,13.93
2022-11-27T05:41:36.969Z,11.63
2022-11-27T05:44:05.293Z,12.35
2022-11-27T05:46:33.738Z,12.82
2022-11-27T05:49:01.306Z,13.05
2022-11-27T05:51:28.722Z,14.23
2022-11-27T05:53:56.115Z,14.27
2022-11-27T05:56:23.594Z,14.68
2022-11-27T05:58:51.789Z,12.80
2022-11-27T06:01:19.750Z,14.52
2022-11-27T06:03:47.604Z,13.98
2022-11-27T06:06:17.391Z,13.68
2022-11-27T06:08:45.487Z,13.25
2022-11-27T06:11:15.447Z,13.25
2022-11-27T06:13:43.569Z,14.25
2022-11-27T06:16:22.402Z,12.35
2022-11-27T06:18:52.326Z,12.82
2022-11-27T06:21:21.075Z,13.30
2022-11-27T06:23:48.533Z,13.57
2022-11-27T06:26:17.434Z,11.80
2022-11-27T06:28:45.477Z,12.95
2022-11-27T06:31:19.731Z,12.18
2022-11-27T06:33:48.927Z,13.48
2022-11-27T06:36:17.715Z,12.32
2022-11-27T06:38:45.239Z,13.00
2022-11-27T06:41:24.887Z,13.07
2022-11-27T06:43:53.228Z,12.10
2022-11-27T06:46:22.693Z,13.23
2022-11-27T06:48:51.977Z,14.00
2022-11-27T06:51:25.193Z,13.25
2022-11-27T06:53:53.164Z,14.73
2022-11-27T06:56:23.339Z,13.70
2022-11-27T06:58:52.592Z,11.65
2022-11-27T07:01:21.027Z,10.48
2022-11-27T07:03:48.533Z,11.88
2022-11-27T07:06:19.659Z,11.98
2022-11-27T07:08:47.374Z,10.77
2022-11-27T07:11:18.490Z,11.25
2022-11-27T07:13:47.483Z,10.80
2022-11-27T07:16:15.505Z,13.05
2022-11-27T07:18:54.741Z,12.65
2022-11-27T07:21:22.349Z,10.70
2022-11-27T07:23:50.500Z,12.85
2022-11-27T07:26:22.984Z,12.60
2022-11-27T07:28:50.774Z,12.15
2022-11-27T07:31:20.651Z,11.82
2022-11-27T07:33:48.134Z,11.52
2022-11-27T07:36:19.561Z,9.68
2022-11-27T07:38:47.382Z,9.25
2022-11-27T07:41:15.731Z,8.32
2022-11-27T07:43:44.867Z,9.63
2022-11-27T07:46:23.874Z,10.73
2022-11-27T07:48:51.899Z,10.93
2022-11-27T07:51:21.815Z,11.30
2022-11-27T07:53:52.133Z,10.23
2022-11-27T07:56:20.263Z,10.48
2022-11-27T07:58:48.345Z,8.95
2022-11-27T08:01:18.035Z,7.63
2022-11-27T08:03:45.606Z,10.20
2022-11-27T08:06:21.944Z,8.80
2022-11-27T08:08:50.263Z,9.55
2022-11-27T08:11:18.734Z,10.73
2022-11-27T08:13:46.406Z,11.15
2022-11-27T08:16:13.868Z,10.88
2022-11-27T08:18:41.346Z,44.30
2022-11-27T08:21:09.012Z,117.60
2022-11-27T08:23:36.420Z,71.25
2022-11-27T08:26:08.293Z,16.73
2022-11-27T08:28:36.533Z,12.27
2022-11-27T08:31:05.348Z,31.67
2022-11-27T08:33:33.881Z,37.60
2022-11-27T08:36:01.902Z,15.15
2022-11-27T08:38:29.329Z,11.52
2022-11-27T08:41:04.668Z,12.32
2022-11-27T08:43:32.944Z,18.13
2022-11-27T08:46:03.373Z,12.23
2022-11-27T08:48:30.802Z,10.73
2022-11-27T08:50:58.141Z,8.85
2022-11-27T08:53:25.480Z,9.25
2022-11-27T08:55:52.852Z,8.32
2022-11-27T08:58:20.230Z,6.90
2022-11-27T09:00:48.173Z,7.43
2022-11-27T09:03:15.628Z,8.43
2022-11-27T09:05:44.813Z,8.20
2022-11-27T09:08:16.531Z,7.63
2022-11-27T09:10:43.986Z,8.52
2022-11-27T09:13:11.447Z,7.85
2022-11-27T09:15:38.780Z,9.23
2022-11-27T09:18:06.260Z,9.40
2022-11-27T09:20:33.572Z,10.75
2022-11-27T09:23:02.653Z,10.38
2022-11-27T09:25:30.295Z,10.20
2022-11-27T09:27:57.779Z,11.38
2022-11-27T09:30:25.146Z,8.45
2022-11-27T09:32:52.609Z,9.40
2022-11-27T09:35:20.165Z,9.32
2022-11-27T09:37:47.499Z,9.98
2022-11-27T09:40:17.740Z,8.40
2022-11-27T09:42:57.262Z,8.18
2022-11-27T09:45:26.159Z,9.30
2022-11-27T09:47:58.773Z,9.43
2022-11-27T09:50:30.032Z,9.75
2022-11-27T09:53:04.138Z,9.23
2022-11-27T09:55:38.074Z,8.98
2022-11-27T09:58:22.018Z,9.73
2022-11-27T10:00:49.677Z,9.05
2022-11-27T10:03:21.881Z,10.13
2022-11-27T10:06:06.117Z,10.73
2022-11-27T10:08:36.389Z,11.10
2022-11-27T10:11:28.350Z,9.93
2022-11-27T10:13:55.783Z,10.88
2022-11-27T10:16:48.881Z,9.40
2022-11-27T10:19:35.080Z,9.95
2022-11-27T10:22:23.683Z,8.18
2022-11-27T10:25:00.269Z,8.73
2022-11-27T10:27:44.102Z,11.18
2022-11-27T10:30:20.578Z,9.10
2022-11-27T10:32:55.566Z,10.18
2022-11-27T10:35:33.454Z,9.25
2022-11-27T10:38:21.808Z,10.63
2022-11-27T10:40:58.336Z,10.05
2022-11-27T10:43:25.986Z,10.10
2022-11-27T10:46:21.795Z,11.65
2022-11-27T10:48:49.311Z,11.93
2022-11-27T10:51:24.350Z,11.18
2022-11-27T10:53:54.998Z,10.85
2022-11-27T10:57:02.688Z,10.98
2022-11-27T10:59:37.930Z,10.77
2022-11-27T11:02:07.799Z,11.45
2022-11-27T11:04:48.473Z,11.48
2022-11-27T11:07:29.633Z,10.07
2022-11-27T11:09:57.229Z,10.90
2022-11-27T11:12:25.009Z,8.90
2022-11-27T11:14:55.805Z,8.82
2022-11-27T11:17:40.955Z,8.68
2022-11-27T11:20:25.304Z,8.65
2022-11-27T11:22:52.936Z,9.15
2022-11-27T11:25:21.855Z,8.95
2022-11-27T11:27:51.201Z,8.98
2022-11-27T11:30:25.270Z,8.02
2022-11-27T11:33:01.949Z,7.80
2022-11-27T11:35:34.912Z,7.40
2022-11-27T11:38:05.774Z,7.05
2022-11-27T11:40:35.670Z,7.78
2022-11-27T11:43:10.178Z,8.00
2022-11-27T11:45:46.952Z,7.82
2022-11-27T11:48:22.333Z,7.82
2022-11-27T11:51:01.919Z,7.80
2022-11-27T11:53:42.937Z,9.02
2022-11-27T11:56:38.811Z,12.20
2022-11-27T11:59:28.098Z,11.10
2022-11-27T12:02:25.889Z,10.75
2022-11-27T12:05:06.215Z,8.80
2022-11-27T12:07:52.545Z,8.17
2022-11-27T12:10:33.362Z,9.73
2022-11-27T12:13:32.964Z,9.57
2022-11-27T12:16:29.562Z,8.93
2022-11-27T12:19:21.244Z,8.45
2022-11-27T12:22:04.506Z,10.85
2022-11-27T12:25:01.350Z,9.98
2022-11-27T12:28:15.857Z,8.75
2022-11-27T12:30:49.267Z,7.80
2022-11-27T12:33:22.429Z,8.23
2022-11-27T12:36:08.535Z,7.95
2022-11-27T12:38:41.282Z,8.93
2022-11-27T12:41:41.705Z,8.73
2022-11-27T12:47:43.048Z,7.20
2022-11-27T12:56:43.405Z,8.35
2022-11-27T12:59:28.014Z,8.50
2022-11-27T13:05:20.573Z,8.55
2022-11-27T13:08:02.486Z,8.23
2022-11-27T13:10:42.696Z,8.30
2022-11-27T13:13:18.150Z,8.98
2022-11-27T13:15:53.682Z,8.80
2022-11-27T13:18:46.040Z,10.27
2022-11-27T13:21:22.970Z,11.07
2022-11-27T13:23:52.318Z,10.35
2022-11-27T13:26:30.110Z,11.27
2022-11-27T13:29:08.256Z,9.50
2022-11-27T13:31:39.383Z,9.88
2022-11-27T13:34:10.205Z,9.40
2022-11-27T13:36:40.671Z,10.55
2022-11-27T13:39:23.778Z,9.93
2022-11-27T13:42:02.130Z,10.93
2022-11-27T13:44:30.927Z,10.60
2022-11-27T13:47:05.814Z,13.13
2022-11-27T13:49:37.726Z,14.68
2022-11-27T13:52:16.953Z,11.30
2022-11-27T13:55:06.416Z,12.52
2022-11-27T13:57:38.577Z,15.30
2022-11-27T14:00:13.007Z,13.40
2022-11-27T14:02:49.426Z,11.95
2022-11-27T14:05:33.322Z,10.73
2022-11-27T14:08:00.910Z,11.02
2022-11-27T16:34:09.014Z,11.95
2022-11-27T16:36:36.538Z,11.52
2022-11-27T16:39:04.110Z,10.25
2022-11-27T16:41:31.812Z,11.55
2022-11-27T16:43:59.313Z,11.32
2022-11-27T16:46:31.258Z,12.05
2022-11-27T16:49:00.927Z,10.95
2022-11-27T16:51:30.173Z,11.32
2022-11-27T16:54:00.038Z,12.27
2022-11-27T16:56:28.934Z,9.55
2022-11-27T16:59:02.756Z,10.40
2022-11-27T17:01:34.560Z,10.85
2022-11-27T17:04:04.994Z,10.50
2022-11-27T17:06:33.893Z,12.40
2022-11-27T17:09:02.653Z,10.73
2022-11-27T19:32:48.952Z,10.80
2022-11-27T19:35:16.542Z,9.52
2022-11-27T19:37:43.996Z,9.10
2022-11-27T19:40:12.043Z,8.50
2022-11-27T19:42:39.466Z,9.68
2022-11-27T19:45:07.380Z,9.43
2022-11-27T19:47:35.101Z,10.23
2022-11-27T19:50:02.542Z,11.00
2022-11-27T19:52:29.954Z,9.18
2022-11-27T19:54:57.409Z,8.75
2022-11-27T19:57:24.997Z,8.95
2022-11-27T19:59:52.448Z,8.93
2022-11-27T20:02:19.887Z,10.50
2022-11-27T20:04:47.456Z,10.93
2022-11-27T20:07:15.015Z,12.00
2022-11-27T20:09:42.490Z,9.13
2022-11-27T20:12:09.868Z,9.57
2022-11-27T20:14:37.487Z,9.63
2022-11-27T20:17:04.989Z,11.05
2022-11-27T20:19:32.388Z,8.73
2022-11-27T20:21:59.797Z,9.30
2022-11-27T20:24:27.620Z,8.85
2022-11-27T20:26:55.121Z,9.95
2022-11-27T20:29:22.640Z,9.13
2022-11-27T20:31:50.163Z,11.43
2022-11-27T20:34:21.104Z,12.18
2022-11-27T20:39:21.006Z,9.88
2022-11-27T20:41:50.057Z,12.05
2022-11-27T20:44:17.880Z,10.55
2022-11-27T20:46:45.449Z,10.73
2022-11-27T20:49:13.101Z,9.18
2022-11-27T20:51:40.863Z,9.85
2022-11-27T20:54:08.550Z,9.88
2022-11-27T20:56:36.246Z,10.00
2022-11-27T20:59:05.162Z,11.75
2022-11-27T21:01:34.442Z,8.60
2022-11-27T21:04:04.665Z,9.45
2022-11-27T21:06:33.138Z,9.03
2022-11-27T21:09:02.110Z,10.05
2022-11-27T21:11:31.286Z,9.52
2022-11-27T21:14:01.927Z,8.55
2022-11-27T21:16:32.257Z,8.75
2022-11-27T21:19:03.452Z,8.70
2022-11-27T21:21:31.614Z,9.43
2022-11-27T21:23:59.847Z,9.60
2022-11-27T21:26:27.652Z,8.93
2022-11-27T21:28:55.267Z,10.05
2022-11-27T21:31:25.763Z,10.18
2022-11-27T21:33:55.198Z,8.85
2022-11-27T21:36:25.795Z,10.73
2022-11-27T21:38:53.680Z,9.82
2022-11-27T21:41:21.970Z,8.68
2022-11-27T21:43:53.651Z,9.63
2022-11-27T21:46:22.778Z,10.32
2022-11-27T21:48:52.409Z,9.73
2022-11-27T21:51:21.415Z,9.52
2022-11-27T21:53:51.502Z,8.85
2022-11-27T21:56:21.204Z,9.77
2022-11-27T21:58:48.772Z,8.18
2022-11-27T22:01:19.590Z,8.50
2022-11-27T22:06:16.566Z,8.07
2022-11-27T22:08:45.693Z,8.73
2022-11-27T22:11:16.254Z,7.63
2022-11-27T22:13:43.836Z,7.72
2022-11-27T22:16:13.640Z,8.80
2022-11-27T22:18:41.463Z,8.65
2022-11-27T22:21:10.473Z,7.82
2022-11-27T22:23:38.950Z,8.32
2022-11-27T22:26:11.852Z,8.13
2022-11-27T22:28:39.636Z,8.52
2022-11-27T22:31:16.092Z,9.77
2022-11-27T22:33:44.401Z,10.20
2022-11-27T22:36:16.973Z,9.38
2022-11-27T22:38:45.610Z,7.88
2022-11-27T22:41:14.615Z,7.93
2022-11-27T22:43:42.663Z,8.00
2022-11-27T22:46:16.707Z,8.13
2022-11-27T22:48:44.777Z,11.30
2022-11-27T22:51:12.402Z,8.27
2022-11-27T22:53:40.311Z,9.10
2022-11-27T22:56:10.574Z,7.65
2022-11-27T22:58:41.661Z,8.20
2022-11-27T23:01:15.836Z,8.18
2022-11-27T23:03:43.546Z,8.55
2022-11-27T23:06:13.023Z,8.05
2022-11-27T23:08:42.534Z,8.20
2022-11-27T23:11:11.047Z,9.18
2022-11-27T23:13:38.518Z,8.15
2022-11-27T23:16:07.547Z,8.35
2022-11-27T23:18:35.842Z,7.78
2022-11-27T23:21:08.601Z,7.95
2022-11-27T23:23:36.354Z,7.93
2022-11-27T23:26:05.550Z,7.75
2022-11-27T23:28:33.898Z,8.23
2022-11-27T23:31:28.977Z,8.57
2022-11-27T23:33:56.882Z,8.18
2022-11-27T23:36:24.816Z,7.57
2022-11-27T23:38:52.312Z,7.43
2022-11-27T23:41:22.575Z,7.82
2022-11-27T23:43:51.341Z,8.13
2022-11-27T23:46:21.084Z,8.63
2022-11-27T23:48:49.226Z,8.75
2022-11-27T23:51:19.587Z,8.30
2022-11-27T23:53:48.214Z,8.00
2022-11-27T23:56:20.999Z,9.20
2022-11-27T23:58:48.639Z,15.82
